EDFH/HHN METAR and TAF weather

Enter ICAO airport designator
Station Type Date Time Source
EDFH METAR 2021/03/06 04:50 UTC NOAA

EDFH 060450Z 06006KT 040V100 CAVOK M04/M08 Q1030


Station Type Date Time Source
EDFH Decoded METAR 2021/03/06 04:50 UTC NOAA

Hahn, Germany (EDFH) 49-57N 007-16E 498M
Mar 05, 2021 - 11:50 PM EST / 2021.03.06 0450 UTC
Wind: from the ENE (060 degrees) at 7 MPH (6 KT) (direction variable):0
Visibility: greater than 7 mile(s):0
Temperature: 24 F (-4 C)
Windchill: 15 F (-9 C):1
Dew Point: 17 F (-8 C)
Relative Humidity: 73%
Pressure (altimeter): 30.42 in. Hg (1030 hPa)
ob: EDFH 060450Z 06006KT 040V100 CAVOK M04/M08 Q1030
cycle: 5

Station Type Date Time Source
EDFH TAF 2021/03/06 06:00 UTC NOAA

TAF EDFH 060500Z 0606/0706 09007KT CAVOK

Example: see airport list